Historique des stations

Station météo de Le Louroux

Altitude de la station : 103 m







Données météorologiques pour le 04/12/2022
Date
Heure
Températures Humidité Point de rosée Vitesse
du vent
Direction Rafales Windchill Pression Pluviométrie
Cumul
Date
Heure
Températures Humidité Point de rosée Vitesse
du vent
Direction Rafales Windchill Pression Pluviométrie
Cumul
04/12/2022 16:004.7 °C91 %3.3 °C-NNO23 km/h5.0 1011 hPa0.4 mm
04/12/2022 16:004.7 °C91 %3.3 °C-NNO23 km/h5.0 1011 hPa0.4 mm
04/12/2022 16:004.7 °C91 %3.3 °C-NNO23 km/h5.0 1011 hPa0.4 mm
04/12/2022 16:004.7 °C91 %3.3 °C-NNO23 km/h5.0 1011 hPa0.4 mm
04/12/2022 11:003.7 °C93 %2.8 °C2 km/hNNO23 km/h3.3 1011 hPa0.4 mm
04/12/2022 11:003.7 °C93 %2.8 °C2 km/hNNO23 km/h3.3 1011 hPa0.4 mm
04/12/2022 11:003.7 °C93 %2.8 °C2 km/hNNO23 km/h3.3 1011 hPa0.4 mm
04/12/2022 11:003.7 °C93 %2.8 °C2 km/hNNO23 km/h3.3 1011 hPa0.4 mm
04/12/2022 11:003.7 °C93 %2.8 °C2 km/hNNO23 km/h3.3 1011 hPa0.4 mm
04/12/2022 11:003.7 °C93 %2.8 °C2 km/hNNO23 km/h3.3 1011 hPa0.4 mm
04/12/2022 11:003.7 °C93 %2.8 °C2 km/hNNO23 km/h3.3 1011 hPa0.4 mm
04/12/2022 11:003.7 °C93 %2.8 °C2 km/hNNO23 km/h3.3 1011 hPa0.4 mm
04/12/2022 11:003.7 °C93 %2.8 °C2 km/hNNO23 km/h3.3 1011 hPa0.4 mm
04/12/2022 11:003.7 °C93 %2.8 °C2 km/hNNO23 km/h3.3 1011 hPa0.4 mm
04/12/2022 11:003.7 °C93 %2.8 °C2 km/hNNO23 km/h3.3 1011 hPa0.4 mm
04/12/2022 11:003.7 °C93 %2.8 °C2 km/hNNO23 km/h3.3 1011 hPa0.4 mm
04/12/2022 11:003.7 °C93 %2.8 °C2 km/hNNO23 km/h3.3 1011 hPa0.4 mm
04/12/2022 11:003.7 °C93 %2.8 °C2 km/hNNO23 km/h3.3 1011 hPa0.4 mm
04/12/2022 11:003.7 °C93 %2.8 °C2 km/hNNO23 km/h3.3 1011 hPa0.4 mm
04/12/2022 11:003.7 °C93 %2.8 °C2 km/hNNO23 km/h3.3 1011 hPa0.4 mm
04/12/2022 11:003.7 °C93 %2.8 °C2 km/hNNO23 km/h3.3 1011 hPa0.4 mm
04/12/2022 11:003.7 °C93 %2.8 °C2 km/hNNO23 km/h3.3 1011 hPa0.4 mm
04/12/2022 11:003.7 °C93 %2.8 °C2 km/hNNO23 km/h3.3 1011 hPa0.4 mm
04/12/2022 11:003.7 °C93 %2.8 °C2 km/hNNO23 km/h3.3 1011 hPa0.4 mm
04/12/2022 09:003.0 °C93 %2.2 °C3 km/hNNO23 km/h1.7 1010 hPa0.4 mm
04/12/2022 09:003.0 °C93 %2.2 °C3 km/hNNO23 km/h1.7 1010 hPa0.4 mm
04/12/2022 09:003.0 °C93 %2.2 °C3 km/hNNO23 km/h1.7 1010 hPa0.4 mm
04/12/2022 09:003.0 °C93 %2.2 °C3 km/hNNO23 km/h1.7 1010 hPa0.4 mm
04/12/2022 09:003.0 °C93 %2.2 °C3 km/hNNO23 km/h1.7 1010 hPa0.4 mm
04/12/2022 09:003.0 °C93 %2.2 °C3 km/hNNO23 km/h1.7 1010 hPa0.4 mm
04/12/2022 09:003.0 °C93 %2.2 °C3 km/hNNO23 km/h1.7 1010 hPa0.4 mm
04/12/2022 09:003.0 °C93 %2.2 °C3 km/hNNO23 km/h1.7 1010 hPa0.4 mm
04/12/2022 07:582.8 °C93 %1.7 °C3 km/hNNO23 km/h1.7 1009 hPa0.4 mm
04/12/2022 07:582.8 °C93 %1.7 °C3 km/hNNO23 km/h1.7 1009 hPa0.4 mm
04/12/2022 07:582.8 °C93 %1.7 °C3 km/hNNO23 km/h1.7 1009 hPa0.4 mm
04/12/2022 07:582.8 °C93 %1.7 °C3 km/hNNO23 km/h1.7 1009 hPa0.4 mm
04/12/2022 06:002.8 °C92 %1.7 °C8 km/hNNO23 km/h0.6 1009 hPa0.4 mm
04/12/2022 06:002.8 °C92 %1.7 °C8 km/hNNO23 km/h0.6 1009 hPa0.4 mm
04/12/2022 06:002.8 °C92 %1.7 °C8 km/hNNO23 km/h0.6 1009 hPa0.4 mm
04/12/2022 06:002.8 °C92 %1.7 °C8 km/hNNO23 km/h0.6 1009 hPa0.4 mm
04/12/2022 06:002.8 °C92 %1.7 °C8 km/hNNO23 km/h0.6 1009 hPa0.4 mm
04/12/2022 06:002.8 °C92 %1.7 °C8 km/hNNO23 km/h0.6 1009 hPa0.4 mm
04/12/2022 06:002.8 °C92 %1.7 °C8 km/hNNO23 km/h0.6 1009 hPa0.4 mm
04/12/2022 06:002.8 °C92 %1.7 °C8 km/hNNO23 km/h0.6 1009 hPa0.4 mm
04/12/2022 05:472.8 °C92 %1.7 °C11 km/hNNO14 km/h0.0 1009 hPa0.2 mm
04/12/2022 05:452.8 °C92 %1.7 °C6 km/hNNO23 km/h1.1 1009 hPa0.2 mm
04/12/2022 05:322.8 °C93 %1.7 °C6 km/hNNO13 km/h1.1 1009 hPa0.2 mm
04/12/2022 05:302.8 °C93 %1.7 °C6 km/hNNO23 km/h1.1 1009 hPa0.2 mm
04/12/2022 05:172.8 °C93 %1.7 °C3 km/hNO16 km/h1.7 1009 hPa0.2 mm
04/12/2022 05:152.8 °C93 %1.7 °C8 km/hN23 km/h0.6 1009 hPa0.2 mm
04/12/2022 05:032.8 °C93 %1.7 °C6 km/hNNO16 km/h1.1 1009 hPa0.2 mm
04/12/2022 05:002.8 °C93 %1.7 °C10 km/hNNO23 km/h0.0 1009 hPa0.2 mm
04/12/2022 04:002.8 °C93 %1.7 °C8 km/hNNO23 km/h0.6 1009 hPa0.2 mm
04/12/2022 04:002.8 °C93 %1.7 °C8 km/hNNO23 km/h0.6 1009 hPa0.2 mm
04/12/2022 04:002.8 °C93 %1.7 °C8 km/hNNO23 km/h0.6 1009 hPa0.2 mm
04/12/2022 04:002.8 °C93 %1.7 °C8 km/hNNO23 km/h0.6 1009 hPa0.2 mm
04/12/2022 02:002.8 °C92 %1.7 °C13 km/hONO23 km/h-0.6 1010 hPa0.2 mm
04/12/2022 02:002.8 °C92 %1.7 °C13 km/hONO23 km/h-0.6 1010 hPa0.2 mm
04/12/2022 02:002.8 °C92 %1.7 °C13 km/hONO23 km/h-0.6 1010 hPa0.2 mm
04/12/2022 02:002.8 °C92 %1.7 °C13 km/hONO23 km/h-0.6 1010 hPa0.2 mm
04/12/2022 02:002.8 °C92 %1.7 °C13 km/hONO23 km/h-0.6 1010 hPa0.2 mm
04/12/2022 02:002.8 °C92 %1.7 °C13 km/hONO23 km/h-0.6 1010 hPa0.2 mm
04/12/2022 02:002.8 °C92 %1.7 °C13 km/hONO23 km/h-0.6 1010 hPa0.2 mm
04/12/2022 02:002.8 °C92 %1.7 °C13 km/hONO23 km/h-0.6 1010 hPa0.2 mm
04/12/2022 01:002.9 °C92 %1.7 °C10 km/hNNO23 km/h0.0 1010 hPa0.2 mm
04/12/2022 01:002.9 °C92 %1.7 °C10 km/hNNO23 km/h0.0 1010 hPa0.2 mm
04/12/2022 01:002.9 °C92 %1.7 °C10 km/hNNO23 km/h0.0 1010 hPa0.2 mm
04/12/2022 01:002.9 °C92 %1.7 °C10 km/hNNO23 km/h0.0 1010 hPa0.2 mm
04/12/2022 00:473.0 °C92 %1.7 °C14 km/hNNO21 km/h-0.6 1010 hPa0.2 mm
04/12/2022 00:453.0 °C92 %1.7 °C18 km/hNNO21 km/h-1.1 1010 hPa0.2 mm
04/12/2022 00:323.1 °C92 %1.7 °C10 km/hONO19 km/h0.6 1010 hPa0.2 mm
04/12/2022 00:303.1 °C92 %1.7 °C11 km/hNO21 km/h0.6 1010 hPa0.2 mm
04/12/2022 00:173.1 °C92 %2.2 °C5 km/hNO16 km/h2.2 1010 hPa0.2 mm
04/12/2022 00:003.2 °C92 %2.2 °C6 km/hNNO18 km/h1.7 1010 hPa-
04/12/2022 00:003.2 °C92 %2.2 °C6 km/hNNO18 km/h1.7 1010 hPa-


Minima :

Température : 2.8 °C
Humidité : 91 %
Point de rosée : 1.7 °C
Vent moyen : 2 km/h
Windchill : -1.1
Pression atm. : 1009 hPa
Maxima :

Température : 4.7 °C
Humidité : 93 %
Point de rosée : 3.3 °C
Vent moyen : 18 km/h
Windchill : 5.0
Pression atm. : 1011 hPa
Rafales max : 23 km/h
Cumul de pluie sur 24H : 0.4 mm

Le Louroux est une commune du département Indre-et-Loire (37).
La station météorologique du réseau de l'association la plus proche de Le Louroux est celle de Tauxigny



Icône Facebook Association Météo Centre Icône Twitter Association Météo Centre Icône Chaîne Youtube Association Météo Centre Icône contact Association Météo Centre Icône Insta Association Météo Centre